sensor_id;sensor_type;location;lat;lon;timestamp;P1;durP1;ratioP1;P2;durP2;ratioP2
17858;SDS011;35426;30.698;104.050;2022-07-29T00:01:23;32.65;;;16.20;;
17858;SDS011;35426;30.698;104.050;2022-07-29T00:03:59;32.20;;;15.52;;
17858;SDS011;35426;30.698;104.050;2022-07-29T00:06:36;39.42;;;16.13;;
17858;SDS011;35426;30.698;104.050;2022-07-29T00:09:12;31.63;;;14.73;;
17858;SDS011;35426;30.698;104.050;2022-07-29T00:11:50;31.60;;;16.92;;
17858;SDS011;35426;30.698;104.050;2022-07-29T00:14:29;31.38;;;16.50;;
17858;SDS011;35426;30.698;104.050;2022-07-29T00:17:03;33.17;;;16.90;;
17858;SDS011;35426;30.698;104.050;2022-07-29T00:19:37;27.13;;;15.70;;
17858;SDS011;35426;30.698;104.050;2022-07-29T00:22:12;30.60;;;16.40;;
17858;SDS011;35426;30.698;104.050;2022-07-29T00:24:47;26.35;;;14.95;;
17858;SDS011;35426;30.698;104.050;2022-07-29T00:27:23;34.58;;;16.05;;
17858;SDS011;35426;30.698;104.050;2022-07-29T00:29:57;29.60;;;16.23;;
17858;SDS011;35426;30.698;104.050;2022-07-29T00:32:30;26.15;;;15.60;;
17858;SDS011;35426;30.698;104.050;2022-07-29T00:35:05;29.20;;;15.80;;
17858;SDS011;35426;30.698;104.050;2022-07-29T00:37:55;23.83;;;15.05;;
17858;SDS011;35426;30.698;104.050;2022-07-29T00:40:29;30.23;;;15.63;;
17858;SDS011;35426;30.698;104.050;2022-07-29T00:43:04;27.75;;;16.00;;
17858;SDS011;35426;30.698;104.050;2022-07-29T00:45:38;27.10;;;14.43;;
17858;SDS011;35426;30.698;104.050;2022-07-29T00:48:12;22.08;;;14.73;;
17858;SDS011;35426;30.698;104.050;2022-07-29T00:50:58;30.05;;;16.17;;
17858;SDS011;35426;30.698;104.050;2022-07-29T00:53:35;28.77;;;15.50;;
17858;SDS011;35426;30.698;104.050;2022-07-29T00:56:12;30.92;;;16.63;;
17858;SDS011;35426;30.698;104.050;2022-07-29T00:58:48;30.75;;;15.73;;
17858;SDS011;35426;30.698;104.050;2022-07-29T01:01:24;31.20;;;16.20;;
17858;SDS011;35426;30.698;104.050;2022-07-29T01:03:58;24.13;;;16.27;;
17858;SDS011;35426;30.698;104.050;2022-07-29T01:06:33;32.42;;;16.23;;
17858;SDS011;35426;30.698;104.050;2022-07-29T01:09:08;26.25;;;15.95;;
17858;SDS011;35426;30.698;104.050;2022-07-29T01:12:01;34.00;;;17.20;;
17858;SDS011;35426;30.698;104.050;2022-07-29T01:14:38;30.05;;;16.58;;
17858;SDS011;35426;30.698;104.050;2022-07-29T01:17:14;28.55;;;16.23;;
17858;SDS011;35426;30.698;104.050;2022-07-29T01:19:56;33.30;;;18.70;;
17858;SDS011;35426;30.698;104.050;2022-07-29T01:22:36;27.75;;;17.20;;
17858;SDS011;35426;30.698;104.050;2022-07-29T01:25:22;40.13;;;16.80;;
17858;SDS011;35426;30.698;104.050;2022-07-29T01:28:20;32.88;;;19.08;;
17858;SDS011;35426;30.698;104.050;2022-07-29T01:31:16;36.55;;;19.48;;
17858;SDS011;35426;30.698;104.050;2022-07-29T01:34:04;33.72;;;19.00;;
17858;SDS011;35426;30.698;104.050;2022-07-29T01:36:43;32.97;;;18.45;;
17858;SDS011;35426;30.698;104.050;2022-07-29T01:39:22;33.22;;;19.25;;
17858;SDS011;35426;30.698;104.050;2022-07-29T01:42:02;36.08;;;19.60;;
17858;SDS011;35426;30.698;104.050;2022-07-29T01:44:44;33.28;;;17.38;;
17858;SDS011;35426;30.698;104.050;2022-07-29T01:47:25;32.90;;;17.05;;
17858;SDS011;35426;30.698;104.050;2022-07-29T01:50:08;32.25;;;16.17;;
17858;SDS011;35426;30.698;104.050;2022-07-29T01:52:44;24.92;;;15.82;;
17858;SDS011;35426;30.698;104.050;2022-07-29T01:55:25;29.83;;;16.90;;
17858;SDS011;35426;30.698;104.050;2022-07-29T01:58:01;37.30;;;18.40;;
17858;SDS011;35426;30.698;104.050;2022-07-29T02:00:37;37.50;;;22.20;;
17858;SDS011;35426;30.698;104.050;2022-07-29T02:03:14;38.85;;;22.17;;
17858;SDS011;35426;30.698;104.050;2022-07-29T02:05:50;38.40;;;19.65;;
17858;SDS011;35426;30.698;104.050;2022-07-29T02:08:25;30.45;;;18.45;;
17858;SDS011;35426;30.698;104.050;2022-07-29T02:10:59;37.63;;;17.88;;
17858;SDS011;35426;30.698;104.050;2022-07-29T02:13:35;32.58;;;21.67;;
17858;SDS011;35426;30.698;104.050;2022-07-29T02:16:11;33.75;;;19.88;;
17858;SDS011;35426;30.698;104.050;2022-07-29T02:18:50;32.25;;;21.42;;
17858;SDS011;35426;30.698;104.050;2022-07-29T02:21:27;34.15;;;20.88;;
17858;SDS011;35426;30.698;104.050;2022-07-29T02:24:09;37.38;;;21.80;;
17858;SDS011;35426;30.698;104.050;2022-07-29T02:26:50;31.00;;;16.92;;
17858;SDS011;35426;30.698;104.050;2022-07-29T02:29:27;33.85;;;18.35;;
17858;SDS011;35426;30.698;104.050;2022-07-29T02:32:03;40.13;;;22.10;;
17858;SDS011;35426;30.698;104.050;2022-07-29T02:37:39;36.03;;;19.75;;
17858;SDS011;35426;30.698;104.050;2022-07-29T02:40:15;23.40;;;16.08;;
17858;SDS011;35426;30.698;104.050;2022-07-29T02:42:48;26.95;;;17.15;;
17858;SDS011;35426;30.698;104.050;2022-07-29T02:45:22;24.83;;;15.73;;
17858;SDS011;35426;30.698;104.050;2022-07-29T02:47:57;29.95;;;17.15;;
17858;SDS011;35426;30.698;104.050;2022-07-29T02:50:40;25.10;;;16.38;;
17858;SDS011;35426;30.698;104.050;2022-07-29T02:53:22;24.67;;;14.90;;
17858;SDS011;35426;30.698;104.050;2022-07-29T02:55:59;25.83;;;14.20;;
17858;SDS011;35426;30.698;104.050;2022-07-29T02:58:37;24.67;;;14.00;;
17858;SDS011;35426;30.698;104.050;2022-07-29T03:01:14;26.02;;;15.75;;
17858;SDS011;35426;30.698;104.050;2022-07-29T03:03:52;28.45;;;17.13;;
17858;SDS011;35426;30.698;104.050;2022-07-29T03:06:28;30.20;;;18.45;;
17858;SDS011;35426;30.698;104.050;2022-07-29T03:09:06;28.70;;;16.73;;
17858;SDS011;35426;30.698;104.050;2022-07-29T03:11:42;25.75;;;17.08;;
17858;SDS011;35426;30.698;104.050;2022-07-29T03:14:18;21.23;;;14.95;;
17858;SDS011;35426;30.698;104.050;2022-07-29T03:16:52;23.20;;;15.55;;
17858;SDS011;35426;30.698;104.050;2022-07-29T03:19:27;24.27;;;15.88;;
17858;SDS011;35426;30.698;104.050;2022-07-29T03:22:03;23.25;;;15.68;;
17858;SDS011;35426;30.698;104.050;2022-07-29T03:24:36;20.48;;;13.52;;
17858;SDS011;35426;30.698;104.050;2022-07-29T03:27:13;21.88;;;13.82;;
17858;SDS011;35426;30.698;104.050;2022-07-29T03:29:48;26.52;;;18.05;;
17858;SDS011;35426;30.698;104.050;2022-07-29T03:32:23;24.45;;;16.52;;
17858;SDS011;35426;30.698;104.050;2022-07-29T03:34:57;25.42;;;15.68;;
17858;SDS011;35426;30.698;104.050;2022-07-29T03:37:32;27.70;;;17.73;;
17858;SDS011;35426;30.698;104.050;2022-07-29T03:40:19;27.45;;;16.48;;
17858;SDS011;35426;30.698;104.050;2022-07-29T03:42:56;27.33;;;18.42;;
17858;SDS011;35426;30.698;104.050;2022-07-29T03:45:34;34.90;;;21.02;;
17858;SDS011;35426;30.698;104.050;2022-07-29T03:48:10;33.95;;;22.02;;
17858;SDS011;35426;30.698;104.050;2022-07-29T03:50:47;31.10;;;20.55;;
17858;SDS011;35426;30.698;104.050;2022-07-29T03:53:24;37.85;;;21.70;;
17858;SDS011;35426;30.698;104.050;2022-07-29T03:55:58;39.97;;;21.92;;
17858;SDS011;35426;30.698;104.050;2022-07-29T03:58:34;27.02;;;18.40;;
17858;SDS011;35426;30.698;104.050;2022-07-29T04:01:09;29.33;;;19.15;;
17858;SDS011;35426;30.698;104.050;2022-07-29T04:03:44;30.90;;;19.13;;
17858;SDS011;35426;30.698;104.050;2022-07-29T04:06:17;30.58;;;19.08;;
17858;SDS011;35426;30.698;104.050;2022-07-29T04:08:53;30.30;;;18.48;;
17858;SDS011;35426;30.698;104.050;2022-07-29T04:11:26;30.50;;;19.52;;
17858;SDS011;35426;30.698;104.050;2022-07-29T04:14:20;31.77;;;18.52;;
17858;SDS011;35426;30.698;104.050;2022-07-29T04:16:57;31.15;;;17.98;;
17858;SDS011;35426;30.698;104.050;2022-07-29T04:19:30;23.70;;;17.67;;
17858;SDS011;35426;30.698;104.050;2022-07-29T04:22:04;30.25;;;18.23;;
17858;SDS011;35426;30.698;104.050;2022-07-29T04:24:40;23.65;;;16.70;;
17858;SDS011;35426;30.698;104.050;2022-07-29T04:27:13;27.85;;;17.00;;
17858;SDS011;35426;30.698;104.050;2022-07-29T04:29:49;27.83;;;17.25;;
17858;SDS011;35426;30.698;104.050;2022-07-29T04:32:30;27.05;;;16.23;;
17858;SDS011;35426;30.698;104.050;2022-07-29T04:35:05;28.77;;;18.60;;
17858;SDS011;35426;30.698;104.050;2022-07-29T04:37:39;27.30;;;16.73;;
17858;SDS011;35426;30.698;104.050;2022-07-29T04:40:14;32.65;;;19.48;;
17858;SDS011;35426;30.698;104.050;2022-07-29T04:42:48;29.48;;;18.02;;
17858;SDS011;35426;30.698;104.050;2022-07-29T04:45:22;31.63;;;19.45;;
17858;SDS011;35426;30.698;104.050;2022-07-29T04:47:55;32.30;;;18.83;;
17858;SDS011;35426;30.698;104.050;2022-07-29T04:50:29;33.67;;;19.55;;
17858;SDS011;35426;30.698;104.050;2022-07-29T04:53:03;27.95;;;18.13;;
17858;SDS011;35426;30.698;104.050;2022-07-29T04:55:39;28.40;;;18.77;;
17858;SDS011;35426;30.698;104.050;2022-07-29T04:58:12;31.88;;;19.67;;
17858;SDS011;35426;30.698;104.050;2022-07-29T05:00:46;28.77;;;19.23;;
17858;SDS011;35426;30.698;104.050;2022-07-29T05:03:20;30.80;;;20.15;;
17858;SDS011;35426;30.698;104.050;2022-07-29T05:05:54;32.67;;;18.05;;
17858;SDS011;35426;30.698;104.050;2022-07-29T05:08:28;40.80;;;20.25;;
17858;SDS011;35426;30.698;104.050;2022-07-29T05:11:07;26.02;;;18.35;;
17858;SDS011;35426;30.698;104.050;2022-07-29T05:13:48;31.83;;;17.70;;
17858;SDS011;35426;30.698;104.050;2022-07-29T05:16:22;27.00;;;16.88;;
17858;SDS011;35426;30.698;104.050;2022-07-29T05:18:56;28.90;;;17.40;;
17858;SDS011;35426;30.698;104.050;2022-07-29T05:21:30;30.20;;;19.85;;
17858;SDS011;35426;30.698;104.050;2022-07-29T05:24:04;30.13;;;18.05;;
17858;SDS011;35426;30.698;104.050;2022-07-29T05:26:40;29.92;;;18.25;;
17858;SDS011;35426;30.698;104.050;2022-07-29T05:29:17;28.40;;;18.08;;
17858;SDS011;35426;30.698;104.050;2022-07-29T05:32:11;27.77;;;18.50;;
17858;SDS011;35426;30.698;104.050;2022-07-29T05:34:45;29.60;;;18.58;;
17858;SDS011;35426;30.698;104.050;2022-07-29T05:37:19;29.40;;;18.75;;
17858;SDS011;35426;30.698;104.050;2022-07-29T05:39:54;29.75;;;18.38;;
17858;SDS011;35426;30.698;104.050;2022-07-29T05:42:31;31.90;;;20.80;;
17858;SDS011;35426;30.698;104.050;2022-07-29T05:45:05;29.40;;;20.10;;
17858;SDS011;35426;30.698;104.050;2022-07-29T05:47:39;27.92;;;19.45;;
17858;SDS011;35426;30.698;104.050;2022-07-29T05:50:15;28.55;;;19.27;;
17858;SDS011;35426;30.698;104.050;2022-07-29T05:52:48;29.20;;;18.88;;
17858;SDS011;35426;30.698;104.050;2022-07-29T05:55:48;30.30;;;18.85;;
17858;SDS011;35426;30.698;104.050;2022-07-29T05:58:33;30.95;;;17.35;;
17858;SDS011;35426;30.698;104.050;2022-07-29T06:01:11;34.13;;;19.27;;
17858;SDS011;35426;30.698;104.050;2022-07-29T06:03:54;28.05;;;19.38;;
17858;SDS011;35426;30.698;104.050;2022-07-29T06:06:35;26.95;;;19.23;;
17858;SDS011;35426;30.698;104.050;2022-07-29T06:09:11;34.50;;;20.42;;
17858;SDS011;35426;30.698;104.050;2022-07-29T06:11:45;27.42;;;18.27;;
17858;SDS011;35426;30.698;104.050;2022-07-29T06:14:21;31.88;;;19.20;;
17858;SDS011;35426;30.698;104.050;2022-07-29T06:16:55;28.58;;;18.65;;
17858;SDS011;35426;30.698;104.050;2022-07-29T06:19:41;32.15;;;17.73;;
17858;SDS011;35426;30.698;104.050;2022-07-29T06:22:15;27.50;;;18.02;;
17858;SDS011;35426;30.698;104.050;2022-07-29T06:24:49;26.77;;;17.67;;
17858;SDS011;35426;30.698;104.050;2022-07-29T06:27:25;30.02;;;20.10;;
17858;SDS011;35426;30.698;104.050;2022-07-29T06:30:01;28.80;;;18.73;;
17858;SDS011;35426;30.698;104.050;2022-07-29T06:32:39;33.17;;;19.90;;
17858;SDS011;35426;30.698;104.050;2022-07-29T06:35:13;27.67;;;17.73;;
17858;SDS011;35426;30.698;104.050;2022-07-29T06:38:15;24.60;;;17.40;;
17858;SDS011;35426;30.698;104.050;2022-07-29T06:41:01;27.33;;;19.17;;
17858;SDS011;35426;30.698;104.050;2022-07-29T06:43:37;35.28;;;18.00;;
17858;SDS011;35426;30.698;104.050;2022-07-29T06:46:21;23.40;;;17.52;;
17858;SDS011;35426;30.698;104.050;2022-07-29T06:48:54;25.30;;;17.00;;
17858;SDS011;35426;30.698;104.050;2022-07-29T06:51:31;24.42;;;17.15;;
17858;SDS011;35426;30.698;104.050;2022-07-29T06:54:10;27.75;;;17.27;;
17858;SDS011;35426;30.698;104.050;2022-07-29T06:56:45;27.50;;;17.35;;
17858;SDS011;35426;30.698;104.050;2022-07-29T06:59:19;30.15;;;18.80;;
17858;SDS011;35426;30.698;104.050;2022-07-29T07:02:04;27.88;;;17.02;;
17858;SDS011;35426;30.698;104.050;2022-07-29T07:04:38;28.67;;;17.88;;
17858;SDS011;35426;30.698;104.050;2022-07-29T07:07:15;21.83;;;16.63;;
17858;SDS011;35426;30.698;104.050;2022-07-29T07:09:49;30.38;;;17.80;;
17858;SDS011;35426;30.698;104.050;2022-07-29T07:12:24;22.75;;;16.80;;
17858;SDS011;35426;30.698;104.050;2022-07-29T07:14:58;24.23;;;17.10;;
17858;SDS011;35426;30.698;104.050;2022-07-29T07:17:34;26.23;;;16.45;;
17858;SDS011;35426;30.698;104.050;2022-07-29T07:20:12;25.77;;;17.00;;
17858;SDS011;35426;30.698;104.050;2022-07-29T07:22:46;26.63;;;17.15;;
17858;SDS011;35426;30.698;104.050;2022-07-29T07:25:20;26.83;;;18.10;;
17858;SDS011;35426;30.698;104.050;2022-07-29T07:27:54;24.50;;;16.40;;
17858;SDS011;35426;30.698;104.050;2022-07-29T07:30:32;26.65;;;17.13;;
17858;SDS011;35426;30.698;104.050;2022-07-29T07:33:09;22.42;;;16.88;;
17858;SDS011;35426;30.698;104.050;2022-07-29T07:35:44;25.67;;;16.58;;
17858;SDS011;35426;30.698;104.050;2022-07-29T07:38:19;27.90;;;16.45;;
17858;SDS011;35426;30.698;104.050;2022-07-29T07:40:54;25.75;;;16.60;;
17858;SDS011;35426;30.698;104.050;2022-07-29T07:43:27;24.15;;;17.17;;
17858;SDS011;35426;30.698;104.050;2022-07-29T07:46:01;20.98;;;15.85;;
17858;SDS011;35426;30.698;104.050;2022-07-29T07:48:37;24.60;;;16.75;;
17858;SDS011;35426;30.698;104.050;2022-07-29T07:51:13;21.95;;;15.98;;
17858;SDS011;35426;30.698;104.050;2022-07-29T07:53:48;21.30;;;15.57;;
17858;SDS011;35426;30.698;104.050;2022-07-29T07:56:24;29.33;;;17.38;;
17858;SDS011;35426;30.698;104.050;2022-07-29T07:59:02;23.58;;;15.57;;
17858;SDS011;35426;30.698;104.050;2022-07-29T08:01:38;23.63;;;16.30;;
17858;SDS011;35426;30.698;104.050;2022-07-29T08:04:25;22.13;;;16.13;;
17858;SDS011;35426;30.698;104.050;2022-07-29T08:06:59;27.10;;;15.60;;
17858;SDS011;35426;30.698;104.050;2022-07-29T08:09:33;23.70;;;15.40;;
17858;SDS011;35426;30.698;104.050;2022-07-29T08:12:08;26.17;;;15.07;;
17858;SDS011;35426;30.698;104.050;2022-07-29T08:14:43;25.40;;;15.52;;
17858;SDS011;35426;30.698;104.050;2022-07-29T08:17:18;22.35;;;15.80;;
17858;SDS011;35426;30.698;104.050;2022-07-29T08:19:54;21.85;;;15.30;;
17858;SDS011;35426;30.698;104.050;2022-07-29T08:22:29;24.35;;;15.68;;
17858;SDS011;35426;30.698;104.050;2022-07-29T08:25:04;21.23;;;15.77;;
17858;SDS011;35426;30.698;104.050;2022-07-29T08:27:44;24.27;;;15.23;;
17858;SDS011;35426;30.698;104.050;2022-07-29T08:30:19;25.45;;;15.15;;
17858;SDS011;35426;30.698;104.050;2022-07-29T08:32:53;28.35;;;17.15;;
17858;SDS011;35426;30.698;104.050;2022-07-29T08:35:30;29.85;;;19.63;;
17858;SDS011;35426;30.698;104.050;2022-07-29T08:38:04;32.63;;;19.45;;
17858;SDS011;35426;30.698;104.050;2022-07-29T08:40:39;28.73;;;18.30;;
17858;SDS011;35426;30.698;104.050;2022-07-29T08:43:14;28.33;;;18.27;;
17858;SDS011;35426;30.698;104.050;2022-07-29T08:45:50;23.52;;;17.88;;
17858;SDS011;35426;30.698;104.050;2022-07-29T08:48:25;29.38;;;17.83;;
17858;SDS011;35426;30.698;104.050;2022-07-29T08:51:12;29.02;;;17.70;;
17858;SDS011;35426;30.698;104.050;2022-07-29T08:53:50;25.85;;;18.17;;
17858;SDS011;35426;30.698;104.050;2022-07-29T08:56:25;28.38;;;18.30;;
17858;SDS011;35426;30.698;104.050;2022-07-29T08:59:02;28.38;;;18.73;;
17858;SDS011;35426;30.698;104.050;2022-07-29T09:01:39;28.17;;;18.30;;
17858;SDS011;35426;30.698;104.050;2022-07-29T09:04:16;29.30;;;19.00;;
17858;SDS011;35426;30.698;104.050;2022-07-29T09:07:00;26.33;;;18.30;;
17858;SDS011;35426;30.698;104.050;2022-07-29T09:09:37;28.02;;;17.92;;
17858;SDS011;35426;30.698;104.050;2022-07-29T09:12:12;28.95;;;17.48;;
17858;SDS011;35426;30.698;104.050;2022-07-29T09:14:58;25.88;;;17.83;;
17858;SDS011;35426;30.698;104.050;2022-07-29T09:17:42;23.23;;;17.35;;
17858;SDS011;35426;30.698;104.050;2022-07-29T09:20:17;22.85;;;17.35;;
17858;SDS011;35426;30.698;104.050;2022-07-29T09:22:54;27.65;;;18.23;;
17858;SDS011;35426;30.698;104.050;2022-07-29T09:25:32;29.58;;;18.27;;
17858;SDS011;35426;30.698;104.050;2022-07-29T09:28:10;24.13;;;17.27;;
17858;SDS011;35426;30.698;104.050;2022-07-29T09:30:55;26.75;;;17.08;;
17858;SDS011;35426;30.698;104.050;2022-07-29T09:33:32;29.60;;;17.17;;
17858;SDS011;35426;30.698;104.050;2022-07-29T09:36:11;26.30;;;16.95;;
17858;SDS011;35426;30.698;104.050;2022-07-29T09:38:58;24.38;;;16.30;;
17858;SDS011;35426;30.698;104.050;2022-07-29T09:41:46;26.67;;;16.33;;
17858;SDS011;35426;30.698;104.050;2022-07-29T09:44:22;30.65;;;18.02;;
17858;SDS011;35426;30.698;104.050;2022-07-29T09:46:57;29.20;;;17.42;;
17858;SDS011;35426;30.698;104.050;2022-07-29T09:49:35;30.63;;;18.05;;
17858;SDS011;35426;30.698;104.050;2022-07-29T09:52:23;24.73;;;16.23;;
17858;SDS011;35426;30.698;104.050;2022-07-29T09:55:06;24.42;;;17.58;;
17858;SDS011;35426;30.698;104.050;2022-07-29T09:57:45;28.95;;;17.23;;
17858;SDS011;35426;30.698;104.050;2022-07-29T10:00:20;26.23;;;17.67;;
17858;SDS011;35426;30.698;104.050;2022-07-29T10:02:54;25.08;;;17.75;;
17858;SDS011;35426;30.698;104.050;2022-07-29T10:06:05;30.08;;;17.60;;
17858;SDS011;35426;30.698;104.050;2022-07-29T10:08:40;26.15;;;17.10;;
17858;SDS011;35426;30.698;104.050;2022-07-29T10:11:17;27.30;;;17.60;;
17858;SDS011;35426;30.698;104.050;2022-07-29T10:14:12;28.35;;;18.02;;
17858;SDS011;35426;30.698;104.050;2022-07-29T10:16:47;26.42;;;18.10;;
17858;SDS011;35426;30.698;104.050;2022-07-29T10:19:21;25.63;;;19.17;;
17858;SDS011;35426;30.698;104.050;2022-07-29T10:21:56;28.40;;;18.40;;
17858;SDS011;35426;30.698;104.050;2022-07-29T10:24:32;29.42;;;17.40;;
17858;SDS011;35426;30.698;104.050;2022-07-29T10:27:09;26.90;;;17.48;;
17858;SDS011;35426;30.698;104.050;2022-07-29T10:29:46;22.98;;;18.27;;
17858;SDS011;35426;30.698;104.050;2022-07-29T10:32:22;28.85;;;17.02;;
17858;SDS011;35426;30.698;104.050;2022-07-29T10:38:27;25.83;;;16.92;;
17858;SDS011;35426;30.698;104.050;2022-07-29T10:44:21;27.42;;;16.58;;
17858;SDS011;35426;30.698;104.050;2022-07-29T10:46:56;26.63;;;16.98;;
17858;SDS011;35426;30.698;104.050;2022-07-29T10:49:30;24.48;;;17.60;;
17858;SDS011;35426;30.698;104.050;2022-07-29T10:52:08;24.70;;;16.52;;
17858;SDS011;35426;30.698;104.050;2022-07-29T10:54:46;25.77;;;16.08;;
17858;SDS011;35426;30.698;104.050;2022-07-29T10:57:24;22.10;;;16.50;;
17858;SDS011;35426;30.698;104.050;2022-07-29T11:00:28;26.05;;;16.90;;
17858;SDS011;35426;30.698;104.050;2022-07-29T11:03:10;26.83;;;16.48;;
17858;SDS011;35426;30.698;104.050;2022-07-29T11:06:24;27.40;;;16.45;;
17858;SDS011;35426;30.698;104.050;2022-07-29T11:09:19;26.70;;;16.58;;
17858;SDS011;35426;30.698;104.050;2022-07-29T11:12:07;20.30;;;15.60;;
17858;SDS011;35426;30.698;104.050;2022-07-29T11:15:21;29.75;;;15.38;;
17858;SDS011;35426;30.698;104.050;2022-07-29T11:20:58;20.88;;;16.33;;
17858;SDS011;35426;30.698;104.050;2022-07-29T11:24:15;26.38;;;16.73;;
17858;SDS011;35426;30.698;104.050;2022-07-29T11:27:30;28.10;;;17.17;;
17858;SDS011;35426;30.698;104.050;2022-07-29T11:30:12;25.08;;;16.92;;
17858;SDS011;35426;30.698;104.050;2022-07-29T11:32:52;28.73;;;17.70;;
17858;SDS011;35426;30.698;104.050;2022-07-29T11:35:28;27.42;;;17.63;;
17858;SDS011;35426;30.698;104.050;2022-07-29T11:38:25;26.75;;;17.60;;
17858;SDS011;35426;30.698;104.050;2022-07-29T11:43:54;26.60;;;17.30;;
17858;SDS011;35426;30.698;104.050;2022-07-29T11:46:44;27.42;;;19.05;;
17858;SDS011;35426;30.698;104.050;2022-07-29T11:49:21;29.55;;;19.35;;
17858;SDS011;35426;30.698;104.050;2022-07-29T11:52:01;37.15;;;20.27;;
17858;SDS011;35426;30.698;104.050;2022-07-29T11:54:49;29.05;;;19.63;;
17858;SDS011;35426;30.698;104.050;2022-07-29T11:57:29;27.90;;;18.88;;
17858;SDS011;35426;30.698;104.050;2022-07-29T12:00:11;28.20;;;19.55;;
17858;SDS011;35426;30.698;104.050;2022-07-29T12:02:54;29.10;;;19.55;;
17858;SDS011;35426;30.698;104.050;2022-07-29T12:05:32;27.55;;;19.52;;
17858;SDS011;35426;30.698;104.050;2022-07-29T12:08:20;29.77;;;19.38;;
17858;SDS011;35426;30.698;104.050;2022-07-29T12:10:55;26.35;;;19.05;;
17858;SDS011;35426;30.698;104.050;2022-07-29T12:13:50;26.38;;;19.35;;
17858;SDS011;35426;30.698;104.050;2022-07-29T12:16:33;31.27;;;19.00;;
17858;SDS011;35426;30.698;104.050;2022-07-29T12:19:08;27.00;;;18.95;;
17858;SDS011;35426;30.698;104.050;2022-07-29T12:21:45;28.00;;;19.73;;
17858;SDS011;35426;30.698;104.050;2022-07-29T12:24:27;27.70;;;19.67;;
17858;SDS011;35426;30.698;104.050;2022-07-29T12:27:27;27.23;;;20.10;;
17858;SDS011;35426;30.698;104.050;2022-07-29T12:30:09;26.45;;;19.50;;
17858;SDS011;35426;30.698;104.050;2022-07-29T12:32:45;37.45;;;20.85;;
17858;SDS011;35426;30.698;104.050;2022-07-29T12:35:19;30.25;;;18.83;;
17858;SDS011;35426;30.698;104.050;2022-07-29T12:37:54;27.10;;;20.30;;
17858;SDS011;35426;30.698;104.050;2022-07-29T12:40:30;29.25;;;18.88;;
17858;SDS011;35426;30.698;104.050;2022-07-29T12:43:05;27.23;;;19.30;;
17858;SDS011;35426;30.698;104.050;2022-07-29T12:45:42;27.95;;;20.10;;
17858;SDS011;35426;30.698;104.050;2022-07-29T12:48:18;29.65;;;19.85;;
17858;SDS011;35426;30.698;104.050;2022-07-29T12:51:07;26.65;;;19.33;;
17858;SDS011;35426;30.698;104.050;2022-07-29T12:54:02;30.45;;;19.92;;
17858;SDS011;35426;30.698;104.050;2022-07-29T12:56:39;30.00;;;19.83;;
17858;SDS011;35426;30.698;104.050;2022-07-29T12:59:14;31.58;;;19.00;;
17858;SDS011;35426;30.698;104.050;2022-07-29T13:01:50;28.10;;;19.83;;
17858;SDS011;35426;30.698;104.050;2022-07-29T13:04:25;28.17;;;19.65;;
17858;SDS011;35426;30.698;104.050;2022-07-29T13:07:00;24.95;;;18.77;;
17858;SDS011;35426;30.698;104.050;2022-07-29T13:09:37;29.73;;;18.38;;
17858;SDS011;35426;30.698;104.050;2022-07-29T13:12:13;30.42;;;19.02;;
17858;SDS011;35426;30.698;104.050;2022-07-29T13:14:48;26.67;;;18.90;;
17858;SDS011;35426;30.698;104.050;2022-07-29T13:17:22;29.65;;;19.73;;
17858;SDS011;35426;30.698;104.050;2022-07-29T13:20:04;32.38;;;19.75;;
17858;SDS011;35426;30.698;104.050;2022-07-29T13:22:42;28.33;;;18.92;;
17858;SDS011;35426;30.698;104.050;2022-07-29T13:25:24;26.58;;;19.25;;
17858;SDS011;35426;30.698;104.050;2022-07-29T13:28:06;25.45;;;18.83;;
17858;SDS011;35426;30.698;104.050;2022-07-29T13:30:40;29.48;;;18.45;;
17858;SDS011;35426;30.698;104.050;2022-07-29T13:33:15;27.98;;;19.42;;
17858;SDS011;35426;30.698;104.050;2022-07-29T13:35:49;26.90;;;18.75;;
17858;SDS011;35426;30.698;104.050;2022-07-29T13:38:22;27.83;;;18.58;;
17858;SDS011;35426;30.698;104.050;2022-07-29T13:40:58;27.88;;;18.67;;
17858;SDS011;35426;30.698;104.050;2022-07-29T13:43:34;25.70;;;18.38;;
17858;SDS011;35426;30.698;104.050;2022-07-29T13:46:08;26.98;;;19.08;;
17858;SDS011;35426;30.698;104.050;2022-07-29T13:48:43;23.90;;;18.35;;
17858;SDS011;35426;30.698;104.050;2022-07-29T13:51:17;33.67;;;20.42;;
17858;SDS011;35426;30.698;104.050;2022-07-29T13:53:51;25.10;;;19.55;;
17858;SDS011;35426;30.698;104.050;2022-07-29T13:56:24;31.85;;;20.90;;
17858;SDS011;35426;30.698;104.050;2022-07-29T13:59:03;26.42;;;20.95;;
17858;SDS011;35426;30.698;104.050;2022-07-29T14:01:39;27.42;;;20.08;;
17858;SDS011;35426;30.698;104.050;2022-07-29T14:04:13;25.77;;;19.80;;
17858;SDS011;35426;30.698;104.050;2022-07-29T14:06:48;27.55;;;19.08;;
17858;SDS011;35426;30.698;104.050;2022-07-29T14:09:24;30.00;;;21.10;;
17858;SDS011;35426;30.698;104.050;2022-07-29T14:12:08;28.67;;;20.60;;
17858;SDS011;35426;30.698;104.050;2022-07-29T14:14:45;29.30;;;20.35;;
17858;SDS011;35426;30.698;104.050;2022-07-29T14:17:20;33.50;;;22.55;;
17858;SDS011;35426;30.698;104.050;2022-07-29T14:19:53;30.27;;;21.35;;
17858;SDS011;35426;30.698;104.050;2022-07-29T14:22:29;28.88;;;21.05;;
17858;SDS011;35426;30.698;104.050;2022-07-29T14:25:20;27.38;;;20.00;;
17858;SDS011;35426;30.698;104.050;2022-07-29T14:27:54;33.90;;;23.52;;
17858;SDS011;35426;30.698;104.050;2022-07-29T14:30:48;35.33;;;22.45;;
17858;SDS011;35426;30.698;104.050;2022-07-29T14:33:23;30.00;;;21.05;;
17858;SDS011;35426;30.698;104.050;2022-07-29T14:35:57;30.05;;;20.55;;
17858;SDS011;35426;30.698;104.050;2022-07-29T14:38:31;28.13;;;20.60;;
17858;SDS011;35426;30.698;104.050;2022-07-29T14:41:05;28.48;;;20.88;;
17858;SDS011;35426;30.698;104.050;2022-07-29T14:43:39;27.65;;;19.40;;
17858;SDS011;35426;30.698;104.050;2022-07-29T14:46:15;30.52;;;20.20;;
17858;SDS011;35426;30.698;104.050;2022-07-29T14:48:50;30.40;;;20.60;;
17858;SDS011;35426;30.698;104.050;2022-07-29T14:51:24;33.10;;;23.00;;
17858;SDS011;35426;30.698;104.050;2022-07-29T14:54:02;27.90;;;21.60;;
17858;SDS011;35426;30.698;104.050;2022-07-29T14:56:37;33.63;;;21.45;;
17858;SDS011;35426;30.698;104.050;2022-07-29T14:59:14;33.78;;;21.08;;
17858;SDS011;35426;30.698;104.050;2022-07-29T15:01:51;31.75;;;20.67;;
17858;SDS011;35426;30.698;104.050;2022-07-29T15:04:28;30.65;;;21.15;;
17858;SDS011;35426;30.698;104.050;2022-07-29T15:07:03;29.73;;;20.70;;
17858;SDS011;35426;30.698;104.050;2022-07-29T15:09:37;32.95;;;23.08;;
17858;SDS011;35426;30.698;104.050;2022-07-29T15:12:17;28.13;;;21.30;;
17858;SDS011;35426;30.698;104.050;2022-07-29T15:14:52;27.92;;;21.52;;